This is the latest recevied weather packets stored in our database for station/object N8AMF. If no packets are shown the sender has not sent any weather packets the latest 10 day(s).
| Time | Temp. | Humidity | Pressure | Rain* | Wind** | Luminosity | Snow |
|---|---|---|---|---|---|---|---|
| 1777591745 | 10.56° C | 56% | 1013.5 hPa | 0 mm | - | 48 W/m² | - |
| 1777591440 | 10.56° C | 55% | 1013.5 hPa | 0 mm | - | 42 W/m² | - |
| 1777591136 | 11.11° C | 53% | 1013.5 hPa | 0 mm | - | 40 W/m² | - |
| 1777590831 | 11.11° C | 52% | 1013.3 hPa | 0 mm | - | 44 W/m² | - |
| 1777590528 | 11.11° C | 52% | 1013.2 hPa | 0 mm | - | 47 W/m² | - |
| 1777590224 | 11.11° C | 54% | 1013.5 hPa | 0 mm | - | 50 W/m² | - |
| 1777589922 | 11.11° C | 52% | 1013.5 hPa | 0 mm | - | 54 W/m² | - |
| 1777589617 | 11.67° C | 52% | 1013.6 hPa | 0 mm | - | 58 W/m² | - |
| 1777589315 | 11.67° C | 52% | 1013.5 hPa | 0 mm | - | 108 W/m² | - |
| 1777589012 | 11.11° C | 52% | 1013.5 hPa | 0 mm | - | 82 W/m² | - |
| 1777588708 | 11.67° C | 50% | 1013.5 hPa | 0 mm | - | 61 W/m² | - |
| 1777588404 | 11.67° C | 52% | 1013.3 hPa | 0 mm | - | 59 W/m² | - |
| 1777588100 | 11.67° C | 51% | 1013.7 hPa | 0 mm | - | 61 W/m² | - |
| 1777587796 | 11.67° C | 52% | 1013.7 hPa | 0 mm | - | 65 W/m² | - |
| 1777587495 | 11.67° C | 50% | 1013.6 hPa | 0 mm | - | 63 W/m² | - |
| 1777587192 | 11.67° C | 50% | 1013.5 hPa | 0 mm | - | 61 W/m² | - |
| 1777586887 | 11.67° C | 46% | 1013.6 hPa | 0 mm | - | 61 W/m² | - |
| 1777586583 | 11.67° C | 49% | 1013.2 hPa | 0 mm | - | 61 W/m² | - |
| 1777586278 | 12.78° C | 45% | 1013.5 hPa | 0 mm | - | 379 W/m² | - |
| 1777585976 | 12.22° C | 46% | 1013.5 hPa | 0 mm | - | 401 W/m² | - |
| 1777585671 | 12.78° C | 44% | 1013.3 hPa | 0 mm | - | 424 W/m² | - |
| 1777585366 | 12.78° C | 46% | 1013.3 hPa | 0 mm | - | 438 W/m² | - |
| 1777585062 | 12.78° C | 48% | 1013.5 hPa | 0 mm | - | 456 W/m² | - |
| 1777584758 | 13.33° C | 48% | 1013.5 hPa | 0 mm | - | 477 W/m² | - |
| 1777584456 | 12.78° C | 50% | 1013.2 hPa | 0 mm | - | 497 W/m² | - |
* Rain latest hour (hover to see other rain measurements)
** Current wind speed in m/s (hover to see current wind gust speed)